Main page
METAR-TAF:

Airports :

Eleusina, Greece

latitude: 38-04N, longitude: 023-33E, elevation: 44 m

Current weather observation

The report was made 40 minutes ago, at 22:20 UTC
Wind 5 kt from the North/Northwest
Temperature 28°C
Humidity 32%
Pressure 1012 hPa
Visibility 10 km or more
no clouds below 1500 m and no cumulonimbus

METAR: LGEL 232220Z 33005KT CAVOK 28/10 Q1012

Time: 02:00 (23:00 UTC)

Forecast

The report was made 6 hours and 0 minutes ago, at 17:00 UTC
Forecast valid from 23 at 18 UTC to 24 at 18 UTC
Wind 10 kt from the North
Visibility 10 km or more
Few clouds at a height of 2000 ft

TAF: LGEL 231700Z 2318/2418 35010KT 9999 FEW020

METAR-TAF

Weather observations and forecasts of more than 4000 airports (METAR and TAF reports).

The available stations are represented by yellow and red dots on the map.

Hover mouse over dot to see the name of the station.

Then click to see weather observations and forecasts.

To change the map : click on the green buttons with a black cross to zoom in, on the green button with a dash to zoom out, or on the green arrows for adjacent maps.


METAR-TAF: